Time;durP1;ratioP1;P1;durP2;ratioP2;P2;SDS_P1;SDS_P2;PMS_P1;PMS_P2;Temp;Humidity;BMP_temperature;BMP_pressure;BME280_temperature;BME280_humidity;BME280_pressure;Samples;Min_cycle;Max_cycle;Signal;HPM_P1;HPM_P2
2022/01/23 00:00:48;;;;;;;;;;;;;;;-0.70;59.13;100812.00;4467490;32;19977;-83
2022/01/23 00:03:18;;;;;;;;;;;;;;;-0.83;59.13;100819.25;4453408;32;20011;-86
2022/01/23 00:05:44;;;;;;;;;;;;;;;-0.83;59.12;100820.09;4453876;32;20053;-86
2022/01/23 00:08:12;;;;;;;;;;;;;;;-0.78;59.13;100818.56;4454549;32;20007;-85
2022/01/23 00:10:37;;;;;;;;;;;;;;;-0.79;59.13;100826.19;4453745;32;20326;-84
2022/01/23 00:13:13;;;;;;;;;;;;;;;-0.94;59.12;100837.69;4454032;32;19984;-86
2022/01/23 00:18:23;;;;;;;;;;;;;;;-0.76;59.13;100833.94;4468779;32;20403;-85
2022/01/23 00:20:48;;;;;;;;;;;;;;;-1.19;59.10;100839.38;4454271;32;19992;-86
2022/01/23 00:23:27;;;;;;;;;;;;;;;-1.13;59.11;100837.91;4454090;32;19981;-86
2022/01/23 00:31:21;;;;;;;;;;;;;;;-1.14;59.11;100841.28;4456478;32;20112;-85
2022/01/23 00:33:46;;;;;;;;;;;;;;;-1.17;59.10;100837.75;4455261;32;20391;-85
2022/01/23 00:36:12;;;;;;;;;;;;;;;-1.20;59.11;100842.75;4455895;32;20019;-85
2022/01/23 00:38:38;;;;;;;;;;;;;;;-1.21;59.10;100841.00;4457563;32;20036;-86
2022/01/23 00:41:03;;;;;;;;;;;;;;;-1.31;59.09;100844.97;4479489;32;20177;-86
2022/01/23 00:43:30;;;;;;;;;;;;;;;-1.23;59.10;100840.97;4469074;32;19989;-85
2022/01/23 00:46:23;;;;;;;;;;;;;;;-1.00;59.11;100837.47;4454338;32;20003;-85
2022/01/23 00:49:34;;;;;;;;;;;;;;;-1.33;59.09;100841.50;4456685;32;19985;-85
2022/01/23 00:51:38;;;;;;;;;;;;;;;-1.23;59.11;100844.38;4459764;32;20012;-85
2022/01/23 00:54:04;;;;;;;;;;;;;;;-1.19;59.10;100845.34;4454575;32;20007;-85
2022/01/23 00:56:29;;;;;;;;;;;;;;;-1.51;59.08;100841.72;4454300;32;20044;-85
2022/01/23 00:58:54;;;;;;;;;;;;;;;-1.39;59.09;100839.59;4453212;32;27810;-85
2022/01/23 01:01:19;;;;;;;;;;;;;;;-1.59;59.08;100840.59;4454095;32;20269;-85
2022/01/23 01:03:45;;;;;;;;;;;;;;;-1.52;59.09;100845.09;4469195;32;19957;-86
2022/01/23 01:06:10;;;;;;;;;;;;;;;-1.53;59.08;100834.84;4470109;32;20011;-84
2022/01/23 01:08:35;;;;;;;;;;;;;;;-1.61;59.07;100838.00;4454515;32;23121;-86
2022/01/23 01:13:53;;;;;;;;;;;;;;;-1.69;59.07;100834.31;4467986;32;19988;-86
2022/01/23 01:32:45;;;;;;;;;;;;;;;-1.81;59.07;100815.16;4467799;32;20004;-86
2022/01/23 01:38:02;;;;;;;;;;;;;;;-1.97;59.05;100811.19;4426626;32;19996;-86
2022/01/23 01:40:28;;;;;;;;;;;;;;;-1.91;59.06;100819.06;4453085;32;20522;-86
2022/01/23 01:42:53;;;;;;;;;;;;;;;-2.00;59.05;100822.16;4453099;32;20008;-85
2022/01/23 01:45:25;;;;;;;;;;;;;;;-2.20;59.04;100820.56;4468756;32;20254;-86
2022/01/23 01:47:51;;;;;;;;;;;;;;;-1.97;59.05;100819.72;4460640;32;20007;-86
2022/01/23 01:50:17;;;;;;;;;;;;;;;-2.02;59.05;100815.28;4456932;32;19981;-86
2022/01/23 01:52:42;;;;;;;;;;;;;;;-1.93;59.06;100831.75;4455208;32;20029;-86
2022/01/23 01:55:10;;;;;;;;;;;;;;;-1.84;59.06;100833.78;4454611;32;20294;-87
2022/01/23 01:57:40;;;;;;;;;;;;;;;-2.01;59.06;100839.97;4468143;32;20081;-87
2022/01/23 02:00:15;;;;;;;;;;;;;;;-1.87;59.06;100838.78;4440871;32;20740;-86
2022/01/23 02:10:46;;;;;;;;;;;;;;;-1.80;59.07;100827.97;4470091;32;20020;-86
2022/01/23 02:13:13;;;;;;;;;;;;;;;-1.89;59.05;100825.09;4456237;32;20047;-86
2022/01/23 02:16:07;;;;;;;;;;;;;;;-1.76;59.06;100814.50;4455699;32;19992;-86
2022/01/23 02:51:31;;;;;;;;;;;;;;;-1.21;59.11;100807.78;4469457;32;20041;-86
2022/01/23 02:56:34;;;;;;;;;;;;;;;-1.27;59.10;100814.44;4455895;32;20010;-86
2022/01/23 02:59:10;;;;;;;;;;;;;;;-1.20;59.11;100812.94;4455947;32;20352;-86
2022/01/23 03:01:44;;;;;;;;;;;;;;;-1.20;59.10;100807.84;4456360;32;19989;-85
2022/01/23 03:04:10;;;;;;;;;;;;;;;-1.19;59.10;100809.56;4457172;32;19996;-86
2022/01/23 03:32:40;;;;;;;;;;;;;;;-0.90;59.12;100819.87;4469585;32;20003;-84
2022/01/23 03:35:06;;;;;;;;;;;;;;;-0.74;59.12;100833.16;4458245;32;19988;-84
2022/01/23 03:37:31;;;;;;;;;;;;;;;-0.61;59.13;100819.06;4470357;32;19972;-84
2022/01/23 03:39:56;;;;;;;;;;;;;;;-0.74;59.12;100822.94;4469757;32;20016;-84
2022/01/23 03:42:23;;;;;;;;;;;;;;;-0.58;59.14;100816.59;4469097;32;25474;-84
2022/01/23 03:47:39;;;;;;;;;;;;;;;-0.43;59.15;100811.97;4446403;32;19988;-83
2022/01/23 03:50:08;;;;;;;;;;;;;;;-0.56;59.14;100814.09;4454627;32;19983;-84
2022/01/23 03:52:34;;;;;;;;;;;;;;;-0.49;59.15;100805.75;4441833;32;20000;-84
2022/01/23 03:54:59;;;;;;;;;;;;;;;-0.64;59.14;100804.50;4469106;32;20317;-84
2022/01/23 03:57:24;;;;;;;;;;;;;;;-0.55;59.14;100790.25;4454814;32;19981;-84
2022/01/23 03:59:49;;;;;;;;;;;;;;;-0.56;59.14;100796.19;4456071;32;29831;-83
2022/01/23 04:02:16;;;;;;;;;;;;;;;-0.64;59.14;100801.09;4454566;32;20011;-84
2022/01/23 04:04:42;;;;;;;;;;;;;;;-0.58;59.14;100793.59;4455037;32;20025;-84
2022/01/23 04:07:08;;;;;;;;;;;;;;;-0.74;59.12;100810.16;4454946;32;19980;-84
2022/01/23 04:09:34;;;;;;;;;;;;;;;-0.63;59.14;100810.50;4469174;32;19977;-84
2022/01/23 04:12:00;;;;;;;;;;;;;;;-0.56;59.14;100802.16;4454705;32;20049;-83
2022/01/23 04:14:27;;;;;;;;;;;;;;;-0.63;59.14;100800.25;4454686;32;20036;-83
2022/01/23 04:20:01;;;;;;;;;;;;;;;-0.42;59.15;100802.59;4469621;32;20485;-84
2022/01/23 05:00:01;;;;;;;;;;;;;;;0.01;59.18;100804.66;4468600;32;19991;-86
2022/01/23 05:05:11;;;;;;;;;;;;;;;-0.14;59.17;100802.53;4456175;32;20004;-85
2022/01/23 05:07:39;;;;;;;;;;;;;;;-0.12;59.17;100792.34;4468514;32;19973;-86
2022/01/23 05:10:04;;;;;;;;;;;;;;;-0.13;59.17;100801.72;4454027;32;19981;-87
2022/01/23 05:12:32;;;;;;;;;;;;;;;-0.13;59.17;100800.84;4454117;32;20018;-85
2022/01/23 05:14:57;;;;;;;;;;;;;;;-0.06;59.17;100803.63;4454999;32;20007;-85
2022/01/23 05:17:23;;;;;;;;;;;;;;;-0.07;59.16;100806.13;4467777;32;22804;-86
2022/01/23 05:19:48;;;;;;;;;;;;;;;-0.15;59.16;100815.28;4468077;32;20012;-86
2022/01/23 05:24:47;;;;;;;;;;;;;;;-0.36;59.15;100816.41;4454111;32;20439;-85
2022/01/23 05:27:12;;;;;;;;;;;;;;;-0.22;59.15;100813.41;4454448;32;20060;-84
2022/01/23 05:29:37;;;;;;;;;;;;;;;-0.18;59.16;100825.44;4467777;32;19972;-85
2022/01/23 05:32:03;;;;;;;;;;;;;;;-0.20;59.16;100840.75;4467937;32;20306;-85
2022/01/23 05:34:28;;;;;;;;;;;;;;;-0.16;59.16;100837.47;4467793;32;20048;-84
2022/01/23 05:36:53;;;;;;;;;;;;;;;-0.02;59.17;100841.25;4455822;32;19997;-84
2022/01/23 05:39:21;;;;;;;;;;;;;;;-0.26;59.16;100832.00;4455788;32;19993;-85
2022/01/23 05:41:47;;;;;;;;;;;;;;;-0.09;59.16;100830.81;4456063;32;19981;-84
2022/01/23 05:44:12;;;;;;;;;;;;;;;-0.14;59.17;100843.47;4455623;32;20012;-84
2022/01/23 05:46:38;;;;;;;;;;;;;;;-0.06;59.17;100854.78;4455678;32;20029;-84
2022/01/23 05:49:04;;;;;;;;;;;;;;;-0.04;59.17;100849.72;4455038;32;28067;-84
2022/01/23 05:51:30;;;;;;;;;;;;;;;-0.03;59.17;100859.12;4455577;32;19973;-84
2022/01/23 05:53:55;;;;;;;;;;;;;;;0.02;59.18;100861.84;4454623;32;32274;-84
2022/01/23 05:56:20;;;;;;;;;;;;;;;-0.07;59.17;100860.75;4469986;32;28613;-85
2022/01/23 05:58:45;;;;;;;;;;;;;;;-0.17;59.16;100860.44;4470038;32;20242;-84
2022/01/23 06:01:11;;;;;;;;;;;;;;;-0.04;59.17;100865.06;4455640;32;19988;-87
2022/01/23 06:03:36;;;;;;;;;;;;;;;-0.02;59.17;100866.84;4455117;32;20472;-87
2022/01/23 06:06:01;;;;;;;;;;;;;;;0.06;59.17;100866.22;4455877;32;20297;-87
2022/01/23 06:08:26;;;;;;;;;;;;;;;0.12;59.17;100876.63;4469819;32;19985;-87
2022/01/23 06:10:57;;;;;;;;;;;;;;;0.04;59.17;100886.66;4454926;32;24291;-86
2022/01/23 06:13:23;;;;;;;;;;;;;;;0.12;59.18;100886.88;4455541;32;20062;-84
2022/01/23 06:15:48;;;;;;;;;;;;;;;0.16;59.18;100883.56;4455614;32;20345;-86
2022/01/23 06:18:13;;;;;;;;;;;;;;;0.20;59.18;100888.81;4455474;32;27140;-86
2022/01/23 06:20:39;;;;;;;;;;;;;;;0.24;59.19;100887.22;4456733;32;20333;-86
2022/01/23 06:23:04;;;;;;;;;;;;;;;0.30;59.19;100895.94;4457682;32;20007;-86
2022/01/23 06:25:33;;;;;;;;;;;;;;;0.49;59.20;100892.19;4458651;32;20000;-85
2022/01/23 06:27:59;;;;;;;;;;;;;;;0.50;59.20;100898.19;4470637;32;20005;-86
2022/01/23 06:30:24;;;;;;;;;;;;;;;0.42;59.20;100899.66;4471713;32;19965;-86
2022/01/23 06:32:49;;;;;;;;;;;;;;;0.34;59.19;100903.69;4456495;32;20610;-86
2022/01/23 06:35:15;;;;;;;;;;;;;;;0.40;59.20;100899.59;4454457;32;32234;-88
2022/01/23 06:37:40;;;;;;;;;;;;;;;0.49;59.19;100897.31;4455423;32;19995;-85
2022/01/23 06:40:05;;;;;;;;;;;;;;;0.47;59.20;100892.94;4469062;32;21438;-86
2022/01/23 06:42:31;;;;;;;;;;;;;;;0.60;59.21;100900.16;4469462;32;19996;-86
2022/01/23 06:44:58;;;;;;;;;;;;;;;0.56;59.21;100891.53;4469278;32;19988;-87
2022/01/23 06:47:23;;;;;;;;;;;;;;;0.45;59.20;100886.91;4454555;32;20041;-89
2022/01/23 06:49:48;;;;;;;;;;;;;;;0.29;59.18;100894.19;4455222;32;19977;-85
2022/01/23 06:52:13;;;;;;;;;;;;;;;0.60;59.20;100898.44;4456088;32;20039;-86
2022/01/23 06:54:38;;;;;;;;;;;;;;;0.58;59.20;100892.44;4470089;32;22116;-86
2022/01/23 06:57:04;;;;;;;;;;;;;;;0.55;59.20;100900.03;4454963;32;19992;-87
2022/01/23 06:59:29;;;;;;;;;;;;;;;0.70;59.21;100898.69;4455366;32;19992;-86
2022/01/23 07:01:54;;;;;;;;;;;;;;;0.67;59.22;100898.59;4455387;32;20330;-86
2022/01/23 07:04:20;;;;;;;;;;;;;;;0.45;59.20;100903.16;4455304;32;19997;-86
2022/01/23 07:06:45;;;;;;;;;;;;;;;0.38;59.20;100902.97;4455069;32;20003;-86
2022/01/23 07:09:10;;;;;;;;;;;;;;;0.45;59.20;100897.16;4455284;32;19973;-87
2022/01/23 07:11:35;;;;;;;;;;;;;;;0.48;59.20;100899.84;4454476;32;25335;-86
2022/01/23 07:14:01;;;;;;;;;;;;;;;0.71;59.21;100901.31;4457882;32;20028;-86
2022/01/23 07:16:26;;;;;;;;;;;;;;;0.71;59.22;100903.88;4468722;32;29870;-86
2022/01/23 07:18:51;;;;;;;;;;;;;;;0.77;59.22;100901.47;4455050;32;20342;-87
2022/01/23 07:21:16;;;;;;;;;;;;;;;0.79;59.22;100896.38;4454926;32;20008;-88
2022/01/23 07:23:49;;;;;;;;;;;;;;;0.75;59.22;100905.69;4441983;32;20084;-86
2022/01/23 07:26:15;;;;;;;;;;;;;;;0.62;59.21;100911.31;4455758;32;20000;-86
2022/01/23 07:28:42;;;;;;;;;;;;;;;0.71;59.21;100916.69;4455136;32;19985;-87
2022/01/23 07:31:10;;;;;;;;;;;;;;;0.71;59.22;100903.88;4455177;32;20057;-87
2022/01/23 07:33:36;;;;;;;;;;;;;;;0.79;59.22;100911.75;4455429;32;19989;-86
2022/01/23 07:36:02;;;;;;;;;;;;;;;0.82;59.22;100909.28;4457401;32;20011;-87
2022/01/23 07:38:27;;;;;;;;;;;;;;;0.82;59.22;100911.84;4455026;32;20310;-87
2022/01/23 07:40:52;;;;;;;;;;;;;;;0.89;59.23;100917.12;4454857;32;20037;-88
2022/01/23 07:43:17;;;;;;;;;;;;;;;0.84;59.23;100905.03;4455145;32;19985;-87
2022/01/23 07:45:43;;;;;;;;;;;;;;;0.96;59.23;100907.94;4454811;32;20277;-87
2022/01/23 07:48:09;;;;;;;;;;;;;;;0.80;59.21;100903.25;4455004;32;20016;-87
2022/01/23 07:50:35;;;;;;;;;;;;;;;0.81;59.21;100899.84;4454724;32;19996;-87
2022/01/23 07:53:00;;;;;;;;;;;;;;;0.88;59.22;100907.72;4442121;32;20064;-86
2022/01/23 07:55:26;;;;;;;;;;;;;;;0.86;59.22;100906.81;4454228;32;30499;-86
2022/01/23 07:57:52;;;;;;;;;;;;;;;0.75;59.22;100912.50;4454376;32;28712;-86
2022/01/23 08:00:18;;;;;;;;;;;;;;;0.81;59.21;100913.53;4469096;32;20325;-86
2022/01/23 08:02:43;;;;;;;;;;;;;;;0.92;59.23;100913.78;4441958;32;20015;-87
2022/01/23 08:05:10;;;;;;;;;;;;;;;0.94;59.22;100924.94;4454644;32;25093;-86
2022/01/23 08:07:36;;;;;;;;;;;;;;;0.90;59.23;100921.44;4469556;32;19977;-87
2022/01/23 08:10:02;;;;;;;;;;;;;;;0.86;59.22;100926.44;4470974;32;19969;-85
2022/01/23 08:12:28;;;;;;;;;;;;;;;1.09;59.23;100919.34;4455048;32;20040;-86
2022/01/23 08:14:53;;;;;;;;;;;;;;;1.17;59.25;100921.25;4441908;32;19977;-86
2022/01/23 08:17:19;;;;;;;;;;;;;;;1.21;59.24;100912.84;4454062;32;27182;-86
2022/01/23 08:19:44;;;;;;;;;;;;;;;1.18;59.24;100925.59;4454754;32;20070;-86
2022/01/23 08:22:10;;;;;;;;;;;;;;;1.27;59.25;100936.91;4441730;32;20332;-87
2022/01/23 08:24:35;;;;;;;;;;;;;;;1.31;59.24;100919.03;4454423;32;20017;-85
2022/01/23 08:27:00;;;;;;;;;;;;;;;1.43;59.26;100933.88;4454558;32;19976;-86
2022/01/23 08:29:25;;;;;;;;;;;;;;;1.46;59.25;100947.66;4454139;32;31977;-86
2022/01/23 08:31:51;;;;;;;;;;;;;;;1.56;59.26;100951.28;4454125;32;28723;-87
2022/01/23 08:34:16;;;;;;;;;;;;;;;1.66;59.27;100932.72;4454488;32;20015;-85
2022/01/23 08:36:41;;;;;;;;;;;;;;;1.46;59.25;100945.06;4454327;32;19977;-87
2022/01/23 08:39:07;;;;;;;;;;;;;;;1.58;59.26;100954.75;4453570;32;27407;-86
2022/01/23 08:41:50;;;;;;;;;;;;;;;1.36;59.25;100955.94;4455243;32;20014;-87
2022/01/23 08:44:19;;;;;;;;;;;;;;;1.64;59.27;100954.88;4456981;32;20052;-87
2022/01/23 08:46:44;;;;;;;;;;;;;;;1.53;59.26;100962.34;4441380;32;20859;-87
2022/01/23 08:49:09;;;;;;;;;;;;;;;1.67;59.27;100954.97;4454407;32;19989;-87
2022/01/23 08:51:36;;;;;;;;;;;;;;;1.80;59.28;100944.16;4454565;32;19997;-88
2022/01/23 08:54:02;;;;;;;;;;;;;;;1.82;59.27;100942.47;4468338;32;20326;-87
2022/01/23 08:56:28;;;;;;;;;;;;;;;2.02;59.28;100954.91;4454413;32;20010;-88
2022/01/23 08:58:53;;;;;;;;;;;;;;;2.12;59.29;100949.97;4454167;32;20180;-87
2022/01/23 09:01:18;;;;;;;;;;;;;;;2.26;59.30;100932.28;4453308;32;29676;-87
2022/01/23 09:03:44;;;;;;;;;;;;;;;2.37;59.31;100951.38;4453489;32;25872;-86
2022/01/23 09:06:09;;;;;;;;;;;;;;;2.22;59.30;100950.19;4441005;32;20015;-87
2022/01/23 09:08:37;;;;;;;;;;;;;;;2.41;59.31;100942.91;4453879;32;20003;-88
2022/01/23 09:11:08;;;;;;;;;;;;;;;2.49;59.31;100955.03;4455376;32;20081;-87
2022/01/23 09:13:53;;;;;;;;;;;;;;;2.30;59.31;100958.91;4458831;32;20266;-87
2022/01/23 09:16:18;;;;;;;;;;;;;;;2.14;59.30;100968.87;4463975;32;20036;-87
2022/01/23 09:18:43;;;;;;;;;;;;;;;2.34;59.30;100974.41;4466683;32;19997;-88
2022/01/23 09:21:08;;;;;;;;;;;;;;;2.30;59.31;100970.06;4474961;32;20003;-88
2022/01/23 09:23:34;;;;;;;;;;;;;;;2.41;59.31;100968.59;4456875;32;19981;-88
2022/01/23 09:26:02;;;;;;;;;;;;;;;2.69;59.33;100970.00;4455652;32;20010;-88
2022/01/23 09:28:32;;;;;;;;;;;;;;;2.81;59.34;100965.91;4456304;32;20053;-88
2022/01/23 09:30:58;;;;;;;;;;;;;;;2.95;59.35;100969.63;4469928;32;20009;-86
2022/01/23 09:33:23;;;;;;;;;;;;;;;3.22;59.36;100969.25;4455615;32;19977;-86
2022/01/23 09:35:48;;;;;;;;;;;;;;;3.02;59.34;100968.87;4450413;32;26800;-84
2022/01/23 09:38:13;;;;;;;;;;;;;;;3.14;59.35;100968.25;4453975;32;19985;-84
2022/01/23 09:40:40;;;;;;;;;;;;;;;3.22;59.35;100967.53;4440081;32;19981;-84
2022/01/23 09:43:06;;;;;;;;;;;;;;;3.11;59.35;100966.50;4440111;32;19982;-83
2022/01/23 09:45:31;;;;;;;;;;;;;;;3.18;59.35;100964.88;4454630;32;19968;-85
2022/01/23 09:47:56;;;;;;;;;;;;;;;3.41;59.37;100966.13;4429459;32;20021;-84
2022/01/23 09:50:22;;;;;;;;;;;;;;;3.05;59.35;100969.81;4439848;32;20081;-84
2022/01/23 09:52:48;;;;;;;;;;;;;;;3.04;59.35;100974.91;4453970;32;20028;-84
2022/01/23 09:55:13;;;;;;;;;;;;;;;3.22;59.36;100961.53;4439651;32;20273;-84
2022/01/23 09:57:45;;;;;;;;;;;;;;;3.36;59.36;100966.06;4439625;32;20340;-85
2022/01/23 10:00:11;;;;;;;;;;;;;;;3.50;59.37;100963.72;4439623;32;20031;-84
2022/01/23 10:02:37;;;;;;;;;;;;;;;3.76;59.38;100963.25;4439921;32;20029;-83
2022/01/23 10:05:02;;;;;;;;;;;;;;;3.43;59.37;100968.75;4454109;32;20009;-84
2022/01/23 10:07:27;;;;;;;;;;;;;;;3.27;59.36;100965.91;4454732;32;19997;-84
2022/01/23 10:09:56;;;;;;;;;;;;;;;3.03;59.35;100953.47;4439324;32;19989;-84
2022/01/23 10:12:26;;;;;;;;;;;;;;;3.28;59.36;100954.75;4453961;32;20340;-84
2022/01/23 10:14:51;;;;;;;;;;;;;;;3.18;59.36;100960.59;4454226;32;19993;-84
2022/01/23 10:17:17;;;;;;;;;;;;;;;3.21;59.36;100958.09;4439999;32;20000;-84
2022/01/23 10:19:42;;;;;;;;;;;;;;;2.85;59.33;100957.44;4453447;32;28939;-84
2022/01/23 10:22:07;;;;;;;;;;;;;;;2.96;59.35;100961.94;4425911;32;20031;-84
2022/01/23 10:24:32;;;;;;;;;;;;;;;3.30;59.36;100953.06;4440149;32;20372;-83
2022/01/23 10:26:59;;;;;;;;;;;;;;;3.20;59.36;100955.47;4439802;32;19997;-83
2022/01/23 10:29:30;;;;;;;;;;;;;;;3.21;59.36;100954.66;4440838;32;19988;-83
2022/01/23 10:32:10;;;;;;;;;;;;;;;3.49;59.37;100950.81;4440096;32;20334;-83
2022/01/23 10:35:01;;;;;;;;;;;;;;;3.48;59.38;100949.06;4440022;32;19977;-83
2022/01/23 10:37:30;;;;;;;;;;;;;;;3.67;59.37;100946.81;4450181;32;20397;-84
2022/01/23 10:39:55;;;;;;;;;;;;;;;4.04;59.40;100951.66;4454041;32;19982;-84
2022/01/23 10:42:33;;;;;;;;;;;;;;;3.99;59.40;100955.00;4426927;32;20000;-83
2022/01/23 10:47:52;;;;;;;;;;;;;;;4.13;59.41;100954.34;4454300;32;19996;-84
2022/01/23 10:50:20;;;;;;;;;;;;;;;3.94;59.40;100956.66;4441580;32;20659;-83
2022/01/23 10:52:48;;;;;;;;;;;;;;;3.88;59.39;100948.84;4442168;32;19992;-84
2022/01/23 10:55:13;;;;;;;;;;;;;;;4.13;59.41;100942.31;4443529;32;19977;-83
2022/01/23 10:57:39;;;;;;;;;;;;;;;4.04;59.40;100944.78;4455434;32;20035;-83
2022/01/23 11:00:06;;;;;;;;;;;;;;;3.77;59.39;100942.66;4440104;32;19988;-83
2022/01/23 11:02:31;;;;;;;;;;;;;;;3.93;59.39;100948.91;4454473;32;19996;-83
2022/01/23 11:05:03;;;;;;;;;;;;;;;4.01;59.40;100940.44;4439017;32;29312;-83
2022/01/23 11:07:29;;;;;;;;;;;;;;;4.17;59.41;100935.50;4439864;32;20061;-83
2022/01/23 11:09:58;;;;;;;;;;;;;;;4.25;59.41;100932.16;4453842;32;19989;-83
2022/01/23 11:12:43;;;;;;;;;;;;;;;4.40;59.42;100928.91;4439717;32;20381;-83
2022/01/23 11:18:12;;;;;;;;;;;;;;;4.32;59.42;100938.28;4441808;32;20039;-83
2022/01/23 11:20:38;;;;;;;;;;;;;;;4.13;59.41;100941.47;4439648;32;20333;-83
2022/01/23 11:23:09;;;;;;;;;;;;;;;4.37;59.43;100940.91;4453823;32;19996;-83
2022/01/23 11:25:35;;;;;;;;;;;;;;;4.15;59.41;100945.78;4454101;32;20078;-84
2022/01/23 11:28:03;;;;;;;;;;;;;;;4.40;59.42;100941.78;4439320;32;20008;-83
2022/01/23 11:30:55;;;;;;;;;;;;;;;4.12;59.42;100939.72;4439419;32;19988;-83
2022/01/23 11:33:20;;;;;;;;;;;;;;;4.07;59.40;100943.97;4449619;32;19980;-83
2022/01/23 11:35:45;;;;;;;;;;;;;;;4.18;59.41;100939.78;4426546;32;20048;-83
2022/01/23 11:38:14;;;;;;;;;;;;;;;4.25;59.41;100942.47;4439389;32;20046;-83
2022/01/23 11:50:37;;;;;;;;;;;;;;;4.11;59.41;100935.41;4453744;32;19996;-83
2022/01/23 11:54:35;;;;;;;;;;;;;;;4.08;59.41;100943.13;4453592;32;20383;-81
2022/01/23 11:57:02;;;;;;;;;;;;;;;4.06;59.41;100948.25;4453731;32;20064;-82
2022/01/23 11:59:32;;;;;;;;;;;;;;;4.28;59.42;100945.09;4453459;32;20426;-83
2022/01/23 12:02:11;;;;;;;;;;;;;;;4.40;59.42;100939.22;4453163;32;19985;-83
2022/01/23 12:04:37;;;;;;;;;;;;;;;4.28;59.42;100932.22;4453424;32;19978;-83
2022/01/23 12:07:22;;;;;;;;;;;;;;;3.97;59.40;100927.50;4426262;32;19975;-83
2022/01/23 12:10:10;;;;;;;;;;;;;;;4.19;59.41;100920.91;4452463;32;20016;-83
2022/01/23 12:12:42;;;;;;;;;;;;;;;4.39;59.42;100922.03;4443099;32;19985;-83
2022/01/23 12:18:16;;;;;;;;;;;;;;;4.53;59.43;100915.31;4441091;32;19999;-83
2022/01/23 12:20:45;;;;;;;;;;;;;;;4.69;59.44;100912.88;4425953;32;20011;-83
2022/01/23 12:23:11;;;;;;;;;;;;;;;4.48;59.42;100911.81;4453232;32;19981;-82
2022/01/23 12:25:46;;;;;;;;;;;;;;;4.27;59.42;100924.47;4439003;32;20012;-83
2022/01/23 12:28:21;;;;;;;;;;;;;;;4.15;59.41;100921.72;4452355;32;20087;-83
2022/01/23 12:30:47;;;;;;;;;;;;;;;4.14;59.41;100913.12;4438646;32;19997;-83
2022/01/23 12:33:14;;;;;;;;;;;;;;;4.20;59.42;100908.03;4439020;32;20039;-83
2022/01/23 12:35:40;;;;;;;;;;;;;;;4.24;59.42;100903.78;4453066;32;20012;-85
2022/01/23 12:38:06;;;;;;;;;;;;;;;4.24;59.41;100914.09;4456434;32;19977;-83
2022/01/23 12:40:34;;;;;;;;;;;;;;;4.20;59.41;100913.19;4439474;32;20023;-83
2022/01/23 12:43:09;;;;;;;;;;;;;;;4.28;59.42;100901.28;4452472;32;19995;-83
2022/01/23 12:45:53;;;;;;;;;;;;;;;4.13;59.41;100910.53;4437289;32;19977;-83
2022/01/23 12:48:24;;;;;;;;;;;;;;;4.22;59.41;100914.06;4438162;32;19993;-83
2022/01/23 12:50:50;;;;;;;;;;;;;;;4.23;59.42;100909.78;4452592;32;20038;-83
2022/01/23 12:53:15;;;;;;;;;;;;;;;4.14;59.41;100902.81;4451800;32;30519;-83
2022/01/23 12:56:00;;;;;;;;;;;;;;;4.04;59.40;100900.12;4437433;32;32320;-84
2022/01/23 12:58:25;;;;;;;;;;;;;;;3.78;59.39;100902.31;4425347;32;19995;-83
2022/01/23 13:00:50;;;;;;;;;;;;;;;3.52;59.37;100904.53;4425146;32;20008;-81
2022/01/23 13:03:22;;;;;;;;;;;;;;;3.39;59.37;100896.62;4425144;32;19997;-82
2022/01/23 13:05:48;;;;;;;;;;;;;;;3.51;59.37;100905.38;4426020;32;20505;-82
2022/01/23 13:08:24;;;;;;;;;;;;;;;3.46;59.38;100915.59;4425514;32;20258;-83
2022/01/23 13:16:14;;;;;;;;;;;;;;;3.68;59.38;100911.63;4452101;32;19973;-82
2022/01/23 13:33:03;;;;;;;;;;;;;;;4.07;59.41;100905.31;4439456;32;19989;-83
2022/01/23 13:35:10;;;;;;;;;;;;;;;4.07;59.41;100907.87;4447513;32;19985;-81
2022/01/23 13:37:59;;;;;;;;;;;;;;;4.23;59.41;100908.06;4438016;32;19999;-82
2022/01/23 13:40:33;;;;;;;;;;;;;;;4.02;59.40;100910.38;4438254;32;20065;-83
2022/01/23 13:49:15;;;;;;;;;;;;;;;4.09;59.41;100922.50;4452634;32;20360;-80
2022/01/23 13:59:20;;;;;;;;;;;;;;;3.83;59.38;100911.87;4454213;32;20075;-83
2022/01/23 14:02:14;;;;;;;;;;;;;;;3.87;59.39;100925.66;4454329;32;19977;-82
2022/01/23 14:04:35;;;;;;;;;;;;;;;3.94;59.40;100920.59;4453717;32;20439;-82
2022/01/23 14:07:00;;;;;;;;;;;;;;;4.07;59.41;100919.06;4439989;32;19989;-82
2022/01/23 14:09:26;;;;;;;;;;;;;;;4.00;59.40;100912.94;4453089;32;28825;-83
2022/01/23 14:11:52;;;;;;;;;;;;;;;3.88;59.39;100923.09;4454106;32;19965;-83
2022/01/23 14:14:18;;;;;;;;;;;;;;;3.83;59.38;100917.00;4439720;32;20020;-83
2022/01/23 14:16:44;;;;;;;;;;;;;;;3.76;59.39;100907.44;4454079;32;20098;-83
2022/01/23 14:19:22;;;;;;;;;;;;;;;3.66;59.38;100903.91;4440681;32;20004;-82
2022/01/23 14:21:49;;;;;;;;;;;;;;;3.78;59.39;100908.34;4439743;32;20768;-82
2022/01/23 14:24:21;;;;;;;;;;;;;;;3.69;59.39;100915.94;4453885;32;20587;-83
2022/01/23 14:26:56;;;;;;;;;;;;;;;3.72;59.39;100913.41;4439744;32;20048;-83
2022/01/23 14:29:23;;;;;;;;;;;;;;;3.68;59.39;100917.66;4439788;32;19995;-82
2022/01/23 14:32:02;;;;;;;;;;;;;;;3.77;59.39;100910.88;4453915;32;19974;-82
2022/01/23 14:34:27;;;;;;;;;;;;;;;3.75;59.38;100913.44;4439626;32;20020;-82
2022/01/23 14:36:56;;;;;;;;;;;;;;;3.66;59.38;100913.31;4438745;32;31301;-84
2022/01/23 14:39:22;;;;;;;;;;;;;;;3.58;59.38;100923.53;4439769;32;20285;-82
2022/01/23 14:41:48;;;;;;;;;;;;;;;3.66;59.38;100934.78;4439527;32;19973;-83
2022/01/23 14:44:14;;;;;;;;;;;;;;;3.68;59.38;100937.38;4453106;32;30612;-82
2022/01/23 14:46:39;;;;;;;;;;;;;;;3.69;59.38;100939.13;4426920;32;20293;-83
2022/01/23 14:49:10;;;;;;;;;;;;;;;3.49;59.37;100943.97;4439075;32;26694;-82
2022/01/23 14:51:36;;;;;;;;;;;;;;;3.61;59.38;100943.28;4453576;32;19984;-83
2022/01/23 14:54:01;;;;;;;;;;;;;;;3.73;59.39;100950.31;4453296;32;19985;-82
2022/01/23 14:56:29;;;;;;;;;;;;;;;3.53;59.38;100956.03;4439114;32;20033;-82
2022/01/23 14:58:54;;;;;;;;;;;;;;;3.56;59.38;100957.81;4453872;32;19981;-81
2022/01/23 15:01:19;;;;;;;;;;;;;;;3.42;59.37;100959.28;4439224;32;20035;-82
2022/01/23 15:03:48;;;;;;;;;;;;;;;3.60;59.38;100968.19;4452982;32;28928;-82
2022/01/23 15:06:14;;;;;;;;;;;;;;;3.70;59.39;100974.31;4453030;32;20387;-83
2022/01/23 15:08:39;;;;;;;;;;;;;;;3.66;59.38;100969.97;4438793;32;20033;-83
2022/01/23 15:11:05;;;;;;;;;;;;;;;3.44;59.37;100978.19;4453520;32;19997;-83
2022/01/23 15:13:30;;;;;;;;;;;;;;;3.30;59.36;100971.09;4453046;32;25127;-82
2022/01/23 15:15:57;;;;;;;;;;;;;;;3.12;59.35;100978.53;4426181;32;20310;-83
2022/01/23 15:18:23;;;;;;;;;;;;;;;3.06;59.34;100979.25;4453761;32;19991;-82
2022/01/23 15:20:48;;;;;;;;;;;;;;;3.21;59.36;100980.38;4439268;32;19985;-83
2022/01/23 15:23:13;;;;;;;;;;;;;;;3.11;59.35;100983.63;4439209;32;20008;-82
2022/01/23 15:25:39;;;;;;;;;;;;;;;3.18;59.36;100988.91;4439907;32;19993;-82
2022/01/23 15:28:04;;;;;;;;;;;;;;;3.03;59.35;100992.06;4454504;32;20000;-83
2022/01/23 15:30:30;;;;;;;;;;;;;;;2.69;59.33;100999.97;4440331;32;20019;-83
2022/01/23 15:32:55;;;;;;;;;;;;;;;2.72;59.33;100993.19;4441424;32;24978;-83
2022/01/23 15:35:21;;;;;;;;;;;;;;;2.58;59.33;100997.19;4440308;32;20010;-82
2022/01/23 15:37:47;;;;;;;;;;;;;;;2.66;59.33;100998.22;4425977;32;20322;-82
2022/01/23 15:40:12;;;;;;;;;;;;;;;2.69;59.33;100997.41;4453374;32;20000;-82
2022/01/23 15:42:38;;;;;;;;;;;;;;;2.49;59.31;100988.44;4453359;32;20266;-81
2022/01/23 15:45:03;;;;;;;;;;;;;;;2.48;59.31;100997.84;4453415;32;19996;-83
2022/01/23 15:47:28;;;;;;;;;;;;;;;2.59;59.32;100991.19;4453565;32;19985;-82
2022/01/23 15:49:54;;;;;;;;;;;;;;;2.50;59.32;101001.31;4425444;32;28416;-82
2022/01/23 15:52:19;;;;;;;;;;;;;;;2.59;59.32;101008.31;4453193;32;19981;-83
2022/01/23 15:54:45;;;;;;;;;;;;;;;2.36;59.31;101008.72;4452810;32;24163;-83
2022/01/23 15:57:11;;;;;;;;;;;;;;;2.50;59.32;101021.88;4453615;32;20345;-83
2022/01/23 15:59:36;;;;;;;;;;;;;;;2.43;59.32;101012.31;4452354;32;33130;-83
2022/01/23 16:02:03;;;;;;;;;;;;;;;2.39;59.31;101013.94;4453305;32;20129;-83
2022/01/23 16:04:32;;;;;;;;;;;;;;;2.68;59.33;101014.53;4438920;32;20042;-81
2022/01/23 16:06:58;;;;;;;;;;;;;;;2.31;59.31;101015.47;4453074;32;20016;-83